»·PEaware :: N101JP KSAN-KSBA

N101JP :: KSAN-KSBA

FLIGHT INFORMATION

Flight Status: Arrived
Operator: Privately registered:
United States
More flights under this callsign
Pilot: James T. (870)
Aircraft: BEECH AIRCRAFT SUPER KING AIR COMMUTER
(BE20)
More flights by this aircraft type
Origin: KSAN San Diego Intl-Lindbergh
United States
Destination: KSBA Santa Barbara Mun
United States
More flights between these airports :: More routes between these airports
Route: +PEBLE6 V27 SXC V208 VTU VTU282 KWANG
File this flight plan on PilotEdge
Remarks: info zulu,,,,own wx
Altitude:
(Current/Filed)
80ft
Speed:
(Current/Filed)
220kts
Departed: 20-Jan-20 11:44 AM
Arrived: 20-Jan-20 12:47 PM
Distance/Time
Traveled:
167nm/1:03
Distance/Time
To Go:
Arrived

Flight Plot

Page will automatically refresh every two minutes.

Flight plan parsing failed; only flown route is shown


Map Options




Map Legend


Flown Route
Filed Route
Departure Airport
Arrival Airport
Navaid (VOR, NDB)
Fix

Horizontal Profiles

Position Reports

Time Latitude Longitude Heading Altitude Ground
Speed
20-Jan-20 11:27 32.732115 -117.177224 80 21ft 0kts
20-Jan-20 11:28 32.732115 -117.177224 80 21ft 0kts
20-Jan-20 11:29 32.732115 -117.177224 80 21ft 0kts
20-Jan-20 11:30 32.732115 -117.177224 80 21ft 0kts
20-Jan-20 11:31 32.732115 -117.177224 80 21ft 0kts
20-Jan-20 11:32 32.732115 -117.177224 80 21ft 0kts
20-Jan-20 11:33 32.732115 -117.177224 80 21ft 0kts
20-Jan-20 11:34 32.732115 -117.177224 80 21ft 0kts
20-Jan-20 11:35 32.732115 -117.177224 80 21ft 0kts
20-Jan-20 11:36 32.732115 -117.177224 80 21ft 0kts
20-Jan-20 11:37 32.732115 -117.177224 80 21ft 0kts
20-Jan-20 11:38 32.732115 -117.177224 80 21ft 0kts
20-Jan-20 11:39 32.732115 -117.177224 80 21ft 0kts
20-Jan-20 11:40 32.731033 -117.175523 145 21ft 0kts
20-Jan-20 11:41 32.730359 -117.175202 196 21ft 10kts
20-Jan-20 11:42 32.730193 -117.175790 286 21ft 0kts
20-Jan-20 11:43 32.741177 -117.211475 305 1076ft 158kts
20-Jan-20 11:44 32.765972 -117.253646 306 3408ft 156kts
20-Jan-20 11:45 32.790306 -117.294911 306 5550ft 153kts
20-Jan-20 11:46 32.815455 -117.337393 306 7519ft 164kts
20-Jan-20 11:47 32.844160 -117.385617 306 8006ft 198kts
20-Jan-20 11:48 32.877489 -117.441477 306 7998ft 215kts
20-Jan-20 11:49 32.922039 -117.488492 330 7999ft 221kts
20-Jan-20 11:50 32.975148 -117.524065 331 7998ft 219kts
20-Jan-20 11:51 33.015758 -117.575990 308 8001ft 220kts
20-Jan-20 11:52 33.052156 -117.633550 307 8001ft 217kts
20-Jan-20 11:53 33.087925 -117.690450 307 7995ft 216kts
20-Jan-20 11:54 33.124297 -117.746204 308 8004ft 216kts
20-Jan-20 11:55 33.160881 -117.802501 308 7999ft 216kts
20-Jan-20 11:56 33.191523 -117.862873 292 7999ft 216kts
20-Jan-20 11:57 33.213476 -117.928919 292 7997ft 216kts
20-Jan-20 11:58 33.235426 -117.995003 292 7997ft 216kts
20-Jan-20 11:59 33.255198 -118.054270 291 8000ft 216kts
20-Jan-20 12:00 33.278041 -118.123462 291 8000ft 217kts
20-Jan-20 12:01 33.300194 -118.190558 291 7999ft 217kts
20-Jan-20 12:02 33.322259 -118.257600 291 8000ft 217kts
20-Jan-20 12:03 33.344260 -118.324641 291 8000ft 217kts
20-Jan-20 12:04 33.366435 -118.391986 291 8000ft 218kts
20-Jan-20 12:05 33.398198 -118.452200 310 8000ft 217kts
20-Jan-20 12:06 33.437331 -118.507600 310 8000ft 222kts
20-Jan-20 12:08 33.476911 -118.564023 310 8000ft 223kts
20-Jan-20 12:09 33.516499 -118.620578 310 8000ft 224kts
20-Jan-20 12:10 33.556326 -118.677359 309 8000ft 224kts
20-Jan-20 12:11 33.596209 -118.734067 309 7999ft 224kts
20-Jan-20 12:12 33.636042 -118.791157 309 8000ft 224kts
20-Jan-20 12:13 33.675909 -118.848461 311 7999ft 224kts
20-Jan-20 12:14 33.722721 -118.897945 319 7538ft 223kts
20-Jan-20 12:15 33.766815 -118.943692 319 7238ft 203kts
20-Jan-20 12:16 33.809931 -118.988594 319 6955ft 217kts
20-Jan-20 12:17 33.854721 -119.035382 319 6670ft 220kts
20-Jan-20 12:18 33.899645 -119.082335 319 6379ft 219kts
20-Jan-20 12:19 33.943912 -119.128680 319 5996ft 215kts
20-Jan-20 12:20 33.988576 -119.175515 318 5511ft 214kts
20-Jan-20 12:21 34.032506 -119.221833 319 5036ft 213kts
20-Jan-20 12:22 34.076524 -119.267761 319 4576ft 213kts
20-Jan-20 12:23 34.119831 -119.313425 319 4131ft 214kts
20-Jan-20 12:24 34.162804 -119.358725 318 3999ft 209kts
20-Jan-20 12:25 34.204772 -119.403364 319 3999ft 207kts
20-Jan-20 12:26 34.245431 -119.446352 319 3998ft 193kts
20-Jan-20 12:26 34.277755 -119.480631 319 3999ft 188kts
20-Jan-20 12:28 34.314998 -119.533742 284 4002ft 185kts
20-Jan-20 12:29 34.319227 -119.592893 261 3999ft 180kts
20-Jan-20 12:29 34.312646 -119.641209 260 3998ft 172kts
20-Jan-20 12:30 34.305004 -119.697001 260 3999ft 167kts
20-Jan-20 12:31 34.297428 -119.751527 260 3999ft 166kts
20-Jan-20 12:32 34.289748 -119.806395 260 4002ft 171kts
20-Jan-20 12:33 34.281596 -119.865455 262 4004ft 191kts
20-Jan-20 12:34 34.276241 -119.931065 264 3994ft 193kts
20-Jan-20 12:35 34.271261 -119.991188 264 3998ft 173kts
20-Jan-20 12:36 34.266643 -120.047427 264 3999ft 166kts
20-Jan-20 12:37 34.284595 -120.085429 355 3512ft 152kts
20-Jan-20 12:38 34.327299 -120.087217 359 3501ft 162kts
20-Jan-20 12:39 34.372399 -120.087829 359 3499ft 167kts
20-Jan-20 12:40 34.416383 -120.082933 47 3258ft 168kts
20-Jan-20 12:41 34.423089 -120.028318 86 2696ft 156kts
20-Jan-20 12:42 34.424821 -119.972656 87 1851ft 158kts
20-Jan-20 12:43 34.425621 -119.931127 88 1332ft 102kts
20-Jan-20 12:44 34.426443 -119.895878 88 733ft 108kts
20-Jan-20 12:45 34.427301 -119.859183 88 145ft 109kts
20-Jan-20 12:46 34.426666 -119.841046 104 17ft 0kts

Navigation Log

Ident Type
Flight plan parsing failed, navigation log unavailable